Time;durP1;ratioP1;P1;durP2;ratioP2;P2;SDS_P1;SDS_P2;PMS_P1;PMS_P2;Temp;Humidity;BMP_temperature;BMP_pressure;BME280_temperature;BME280_humidity;BME280_pressure;Samples;Min_cycle;Max_cycle;Signal;HPM_P1;HPM_P2
2023/02/03 00:00:49;;;;;;;;;1.00;1.00;;;;;11.26;100.00;103106.91;5113647;27;46147;-68
2023/02/03 00:03:15;;;;;;;;;3.00;0.00;;;;;11.22;100.00;103104.06;5119942;27;45315;-69
2023/02/03 00:05:40;;;;;;;;;1.00;1.00;;;;;11.21;100.00;103110.19;5111972;27;63156;-69
2023/02/03 00:08:06;;;;;;;;;3.67;1.00;;;;;11.18;100.00;103112.69;5100945;27;45531;-69
2023/02/03 00:10:33;;;;;;;;;1.00;1.00;;;;;11.18;100.00;103110.03;5099624;27;45932;-69
2023/02/03 00:12:59;;;;;;;;;2.00;0.00;;;;;11.19;100.00;103114.50;5099994;27;45461;-69
2023/02/03 00:15:25;;;;;;;;;1.00;1.00;;;;;11.22;100.00;103118.19;5100570;27;64448;-68
2023/02/03 00:17:51;;;;;;;;;1.33;1.00;;;;;11.20;100.00;103109.28;5116227;27;45537;-69
2023/02/03 00:20:16;;;;;;;;;1.00;1.00;;;;;11.22;100.00;103117.28;5118951;27;45635;-69
2023/02/03 00:22:41;;;;;;;;;2.33;2.00;;;;;11.20;100.00;103117.22;5118300;27;45361;-68
2023/02/03 00:25:07;;;;;;;;;0.00;0.00;;;;;11.14;100.00;103102.81;5118423;27;62083;-69
2023/02/03 00:27:32;;;;;;;;;1.00;1.00;;;;;11.11;100.00;103097.38;5118387;27;45441;-69
2023/02/03 00:29:58;;;;;;;;;2.00;0.33;;;;;11.10;100.00;103100.88;5117887;27;56129;-69
2023/02/03 00:32:23;;;;;;;;;1.00;1.00;;;;;11.04;100.00;103105.88;5118210;27;53207;-69
2023/02/03 00:34:48;;;;;;;;;1.33;0.00;;;;;11.04;100.00;103112.06;5119599;27;45923;-68
2023/02/03 00:37:14;;;;;;;;;0.33;0.33;;;;;11.03;100.00;103102.34;5119060;27;46771;-69
2023/02/03 00:39:39;;;;;;;;;0.33;0.33;;;;;11.00;100.00;103096.91;5119327;27;46846;-69
2023/02/03 00:42:05;;;;;;;;;2.00;0.67;;;;;11.03;100.00;103091.78;5118480;27;58985;-69
2023/02/03 00:44:30;;;;;;;;;4.67;1.00;;;;;11.00;100.00;103084.59;5095110;27;45533;-69
2023/02/03 00:46:56;;;;;;;;;2.33;1.00;;;;;11.01;100.00;103096.97;5118838;27;45337;-69
2023/02/03 00:49:21;;;;;;;;;1.00;1.00;;;;;10.98;100.00;103083.63;5117371;27;46968;-69
2023/02/03 00:51:46;;;;;;;;;1.00;1.00;;;;;10.97;100.00;103080.88;5118407;27;59767;-69
2023/02/03 00:54:12;;;;;;;;;1.00;1.00;;;;;10.96;100.00;103079.09;5117978;27;60472;-68
2023/02/03 00:56:38;;;;;;;;;1.00;1.00;;;;;10.92;100.00;103072.78;5113809;27;45383;-69
2023/02/03 00:59:03;;;;;;;;;1.00;1.00;;;;;10.96;100.00;103082.63;5116734;27;46593;-69
2023/02/03 01:01:29;;;;;;;;;1.00;1.00;;;;;10.95;100.00;103078.19;5124847;27;45476;-69
2023/02/03 01:03:55;;;;;;;;;2.00;0.67;;;;;10.96;100.00;103069.41;5100781;27;61161;-68
2023/02/03 01:06:20;;;;;;;;;0.00;0.00;;;;;10.95;100.00;103061.41;5100162;27;45668;-69
2023/02/03 01:08:46;;;;;;;;;1.00;1.00;;;;;10.91;100.00;103057.72;5117238;27;68908;-69
2023/02/03 01:11:20;;;;;;;;;2.00;0.00;;;;;10.90;100.00;103053.28;5117947;27;45386;-69
2023/02/03 01:13:45;;;;;;;;;1.00;1.00;;;;;10.85;100.00;103052.16;5114073;27;45505;-68
2023/02/03 01:16:13;;;;;;;;;0.00;0.00;;;;;10.81;100.00;103031.72;5117089;27;45274;-69
2023/02/03 01:18:39;;;;;;;;;2.00;1.00;;;;;10.87;100.00;103041.69;5113263;27;47724;-68
2023/02/03 01:21:10;;;;;;;;;1.67;1.67;;;;;10.88;100.00;103036.47;5099457;27;45626;-69
2023/02/03 01:23:36;;;;;;;;;0.00;0.00;;;;;10.90;100.00;103036.53;5114474;27;45718;-69
2023/02/03 01:26:06;;;;;;;;;1.00;1.00;;;;;10.90;100.00;103036.53;5094117;27;45471;-69
2023/02/03 01:28:32;;;;;;;;;1.67;0.33;;;;;10.93;100.00;103044.59;5116885;27;45601;-69
2023/02/03 01:31:08;;;;;;;;;1.00;1.00;;;;;10.92;100.00;103046.34;5098774;27;45495;-69
2023/02/03 01:33:33;;;;;;;;;1.00;1.00;;;;;10.94;100.00;103051.69;5118450;27;45843;-69
2023/02/03 01:35:59;;;;;;;;;1.00;1.00;;;;;10.94;100.00;103041.13;5117406;27;45413;-69
2023/02/03 01:38:25;;;;;;;;;3.00;2.00;;;;;10.92;100.00;103029.56;5118127;27;45686;-68
2023/02/03 01:40:50;;;;;;;;;0.00;0.00;;;;;10.89;100.00;103029.44;5116897;27;66291;-69
2023/02/03 01:43:38;;;;;;;;;0.00;0.00;;;;;10.89;100.00;103022.41;5117652;27;53370;-69
2023/02/03 01:46:21;;;;;;;;;2.00;1.00;;;;;10.89;100.00;103016.22;5097983;27;45410;-68
2023/02/03 01:48:47;;;;;;;;;1.00;1.00;;;;;10.87;100.00;103009.97;5118050;27;45583;-69
2023/02/03 01:51:12;;;;;;;;;2.67;1.00;;;;;10.83;100.00;103002.75;5116450;27;69040;-68
2023/02/03 01:53:38;;;;;;;;;0.67;0.00;;;;;10.79;100.00;103001.69;5118145;27;45452;-69
2023/02/03 01:56:04;;;;;;;;;2.00;0.00;;;;;10.72;100.00;102989.03;5117874;27;45446;-69
2023/02/03 01:58:31;;;;;;;;;0.00;0.00;;;;;10.73;100.00;102991.75;5117952;27;46510;-69
2023/02/03 02:00:57;;;;;;;;;0.00;0.00;;;;;10.73;100.00;102975.00;5116950;27;45575;-69
2023/02/03 02:03:29;;;;;;;;;1.00;1.00;;;;;10.73;100.00;102975.88;5117359;27;45306;-69
2023/02/03 02:06:04;;;;;;;;;0.00;0.00;;;;;10.77;100.00;102983.97;5099020;27;45357;-69
2023/02/03 02:08:30;;;;;;;;;0.00;0.00;;;;;10.75;100.00;102982.13;5116944;27;46834;-69
2023/02/03 02:10:55;;;;;;;;;0.33;0.33;;;;;10.77;100.00;102995.44;5098564;27;45740;-69
2023/02/03 02:13:21;;;;;;;;;0.00;0.00;;;;;10.79;100.00;102991.13;5097792;27;45465;-69
2023/02/03 02:15:59;;;;;;;;;0.00;0.00;;;;;10.80;100.00;102999.94;5094919;27;60201;-69
2023/02/03 02:18:33;;;;;;;;;0.33;0.33;;;;;10.77;100.00;102999.81;5116155;27;45898;-69
2023/02/03 02:21:07;;;;;;;;;2.33;0.00;;;;;10.78;100.00;103001.63;5117437;27;45374;-69
2023/02/03 02:23:41;;;;;;;;;0.00;0.00;;;;;10.78;100.00;102985.78;5098665;27;45418;-69
2023/02/03 02:26:12;;;;;;;;;2.33;0.00;;;;;10.77;100.00;102978.69;5097970;27;45577;-69
2023/02/03 02:28:58;;;;;;;;;0.00;0.00;;;;;10.71;100.00;102984.59;5116471;27;46661;-69
2023/02/03 02:31:47;;;;;;;;;1.00;0.00;;;;;10.62;100.00;102993.00;5086964;27;45427;-69
2023/02/03 02:34:38;;;;;;;;;2.00;0.00;;;;;10.60;100.00;102996.38;5097783;27;45481;-69
2023/02/03 02:37:09;;;;;;;;;2.00;0.00;;;;;10.59;100.00;102984.03;5117559;27;45355;-69
2023/02/03 02:39:47;;;;;;;;;0.00;0.00;;;;;10.57;100.00;102986.59;5098475;27;46283;-69
2023/02/03 02:42:21;;;;;;;;;0.33;0.00;;;;;10.51;100.00;102975.75;5115783;27;45488;-69
2023/02/03 02:44:54;;;;;;;;;0.00;0.00;;;;;10.42;100.00;102975.34;5110273;27;45536;-69
2023/02/03 02:47:21;;;;;;;;;0.00;0.00;;;;;10.42;100.00;102989.44;5097975;27;45531;-69
2023/02/03 02:50:08;;;;;;;;;0.00;0.00;;;;;10.43;100.00;102992.97;5099432;27;46563;-68
2023/02/03 02:52:36;;;;;;;;;0.00;0.00;;;;;10.45;100.00;102986.06;5098785;27;45333;-68
2023/02/03 02:55:10;;;;;;;;;0.00;0.00;;;;;10.47;100.00;102985.28;5099395;27;45528;-68
2023/02/03 02:57:36;;;;;;;;;0.00;0.00;;;;;10.53;100.00;102989.03;5116037;27;45199;-69
2023/02/03 03:00:04;;;;;;;;;2.00;0.00;;;;;10.56;100.00;102992.72;5095218;27;67893;-69
2023/02/03 03:02:34;;;;;;;;;0.00;0.00;;;;;10.55;100.00;102995.31;5112860;27;45339;-69
2023/02/03 03:05:00;;;;;;;;;0.00;0.00;;;;;10.63;100.00;103013.28;5117139;27;45169;-69
2023/02/03 03:07:27;;;;;;;;;0.00;0.00;;;;;10.66;100.00;103015.19;5098189;27;45533;-68
2023/02/03 03:09:57;;;;;;;;;0.00;0.00;;;;;10.65;100.00;103019.56;5097715;27;46582;-68
2023/02/03 03:12:27;;;;;;;;;0.00;0.00;;;;;10.71;100.00;103024.22;5098597;27;45476;-69
2023/02/03 03:14:58;;;;;;;;;0.67;0.00;;;;;10.73;100.00;103028.72;5101772;27;45403;-68
2023/02/03 03:17:26;;;;;;;;;0.00;0.00;;;;;10.73;100.00;103028.72;5100290;27;45245;-69
2023/02/03 03:19:55;;;;;;;;;0.00;0.00;;;;;10.78;100.00;103030.69;5101714;27;47672;-69
2023/02/03 03:22:25;;;;;;;;;0.00;0.00;;;;;10.80;100.00;103029.00;5115826;27;45338;-69
2023/02/03 03:24:57;;;;;;;;;0.00;0.00;;;;;10.78;100.00;103022.75;5101966;27;45840;-69
2023/02/03 03:27:25;;;;;;;;;2.33;0.00;;;;;10.79;100.00;103033.41;5118960;27;45683;-69
2023/02/03 03:29:58;;;;;;;;;0.00;0.00;;;;;10.82;100.00;103038.84;5120369;27;46645;-69
2023/02/03 03:32:24;;;;;;;;;1.33;0.67;;;;;10.85;100.00;103041.59;5098023;27;45509;-69
2023/02/03 03:34:49;;;;;;;;;2.00;0.00;;;;;10.89;100.00;103055.88;5111007;27;62496;-69
2023/02/03 03:37:35;;;;;;;;;1.33;0.00;;;;;10.90;100.00;103052.38;5101329;27;54002;-69
2023/02/03 03:40:32;;;;;;;;;0.00;0.00;;;;;10.91;100.00;103063.00;5113025;27;47640;-69
2023/02/03 03:43:15;;;;;;;;;0.00;0.00;;;;;10.90;100.00;103060.31;5116360;27;45469;-69
2023/02/03 03:45:48;;;;;;;;;1.00;0.00;;;;;10.90;100.00;103066.50;5119842;27;45425;-68
2023/02/03 03:48:20;;;;;;;;;0.00;0.00;;;;;10.89;100.00;103075.25;5101764;27;45521;-69
2023/02/03 03:50:52;;;;;;;;;0.00;0.00;;;;;10.85;100.00;103068.03;5119714;27;46799;-69
2023/02/03 03:53:18;;;;;;;;;0.00;0.00;;;;;10.87;100.00;103068.13;5091503;27;45579;-68
2023/02/03 03:55:47;;;;;;;;;0.00;0.00;;;;;10.86;100.00;103069.81;5119617;27;59000;-68
2023/02/03 03:58:21;;;;;;;;;0.00;0.00;;;;;10.83;100.00;103058.22;5101313;27;45560;-69
2023/02/03 04:00:47;;;;;;;;;2.00;0.00;;;;;10.84;100.00;103065.31;5101130;27;45919;-68
2023/02/03 04:03:16;;;;;;;;;1.00;0.00;;;;;10.85;100.00;103072.41;5117918;27;66772;-69
2023/02/03 04:05:42;;;;;;;;;0.00;0.00;;;;;10.86;100.00;103064.53;5100880;27;45553;-69
2023/02/03 04:08:07;;;;;;;;;0.00;0.00;;;;;10.83;100.00;103056.50;5099932;27;45557;-69
2023/02/03 04:10:35;;;;;;;;;1.67;0.00;;;;;10.84;100.00;103054.75;5099918;27;46175;-69
2023/02/03 04:13:01;;;;;;;;;1.00;0.00;;;;;10.84;100.00;103047.72;5100664;27;45586;-69
2023/02/03 04:15:26;;;;;;;;;0.00;0.00;;;;;10.87;100.00;103041.69;5100841;27;45475;-69
2023/02/03 04:17:53;;;;;;;;;0.00;0.00;;;;;10.86;100.00;103034.56;5098090;27;45481;-69
2023/02/03 04:20:19;;;;;;;;;0.00;0.00;;;;;10.85;100.00;103027.47;5118126;27;46874;-69
2023/02/03 04:22:44;;;;;;;;;0.00;0.00;;;;;10.82;100.00;103033.56;5119472;27;45456;-69
2023/02/03 04:25:09;;;;;;;;;0.00;0.00;;;;;10.85;100.00;103049.53;5117874;27;62923;-69
2023/02/03 04:27:35;;;;;;;;;0.33;0.00;;;;;10.84;100.00;103044.19;5119671;27;45571;-69
2023/02/03 04:30:00;;;;;;;;;0.00;0.00;;;;;10.84;100.00;103036.25;5100236;27;54959;-69
2023/02/03 04:32:26;;;;;;;;;3.67;0.00;;;;;10.80;100.00;103024.63;5117476;27;66099;-69
2023/02/03 04:34:51;;;;;;;;;1.67;0.00;;;;;10.79;100.00;103009.59;5100545;27;45477;-69
2023/02/03 04:37:17;;;;;;;;;0.00;0.00;;;;;10.74;100.00;103013.78;5117726;27;56273;-69
2023/02/03 04:39:42;;;;;;;;;0.00;0.00;;;;;10.68;100.00;103003.84;5119061;27;45926;-69
2023/02/03 04:42:07;;;;;;;;;0.33;0.00;;;;;10.66;100.00;103024.03;5118451;27;49375;-69
2023/02/03 04:44:33;;;;;;;;;0.00;0.00;;;;;10.65;100.00;103031.84;5117822;27;62159;-69
2023/02/03 04:46:58;;;;;;;;;1.00;0.00;;;;;10.65;100.00;103016.94;5118070;27;59005;-69
2023/02/03 04:49:23;;;;;;;;;0.00;0.00;;;;;10.67;100.00;103022.28;5117229;27;67588;-69
2023/02/03 04:51:49;;;;;;;;;0.00;0.00;;;;;10.64;100.00;103009.81;5118276;27;45472;-69
2023/02/03 04:54:14;;;;;;;;;0.00;0.00;;;;;10.64;100.00;103015.09;5100241;27;45330;-69
2023/02/03 04:56:39;;;;;;;;;0.33;0.00;;;;;10.66;100.00;103021.38;5114581;27;61496;-69
2023/02/03 04:59:05;;;;;;;;;0.00;0.00;;;;;10.69;100.00;103025.88;5118354;27;46723;-69
2023/02/03 05:01:30;;;;;;;;;1.00;0.00;;;;;10.69;100.00;103039.09;5119112;27;45445;-69
2023/02/03 05:03:56;;;;;;;;;0.00;0.00;;;;;10.68;100.00;103038.19;5118103;27;45406;-69
2023/02/03 05:06:27;;;;;;;;;0.00;0.00;;;;;10.67;100.00;103022.28;5117525;27;61351;-69
2023/02/03 05:08:53;;;;;;;;;0.00;0.00;;;;;10.60;100.00;103025.44;5114238;27;47693;-69
2023/02/03 05:11:18;;;;;;;;;1.00;0.00;;;;;10.64;100.00;103037.97;5118309;27;45496;-69
2023/02/03 05:13:43;;;;;;;;;0.00;0.00;;;;;10.63;100.00;103050.28;5116909;27;61385;-69
2023/02/03 05:16:09;;;;;;;;;0.00;0.00;;;;;10.61;100.00;103044.03;5118644;27;45259;-69
2023/02/03 05:18:34;;;;;;;;;1.00;0.00;;;;;10.62;100.00;103061.69;5097943;27;70818;-69
2023/02/03 05:20:59;;;;;;;;;1.00;0.00;;;;;10.59;100.00;103040.41;5117147;27;66852;-69
2023/02/03 05:23:25;;;;;;;;;0.00;0.00;;;;;10.59;100.00;103052.72;5116599;27;63562;-69
2023/02/03 05:25:50;;;;;;;;;0.00;0.00;;;;;10.56;100.00;103052.59;5118195;27;45493;-69
2023/02/03 05:28:15;;;;;;;;;0.00;0.00;;;;;10.57;100.00;103071.13;5099341;27;46077;-69
2023/02/03 05:30:41;;;;;;;;;1.00;0.00;;;;;10.58;100.00;103082.59;5116646;27;62010;-69
2023/02/03 05:33:06;;;;;;;;;0.67;0.00;;;;;10.61;100.00;103085.41;5117703;27;45509;-68
2023/02/03 05:35:31;;;;;;;;;1.33;0.00;;;;;10.62;100.00;103080.19;5116630;27;61340;-70
2023/02/03 05:37:58;;;;;;;;;0.00;0.00;;;;;10.62;100.00;103066.97;5118183;27;46539;-69
2023/02/03 05:43:08;;;;;;;;;0.00;0.00;;;;;10.65;100.00;103072.41;5110967;27;45504;-69
2023/02/03 05:45:33;;;;;;;;;1.00;0.00;;;;;10.61;100.00;103064.28;5098396;27;45590;-69
2023/02/03 05:47:58;;;;;;;;;0.00;0.00;;;;;10.61;100.00;103083.66;5096501;27;69522;-70
2023/02/03 05:50:25;;;;;;;;;0.00;0.00;;;;;10.62;100.00;103066.97;5113753;27;67696;-70
2023/02/03 05:52:50;;;;;;;;;0.00;0.00;;;;;10.63;100.00;103070.53;5113943;27;45437;-70
2023/02/03 05:55:16;;;;;;;;;0.00;0.00;;;;;10.61;100.00;103080.13;5114169;27;62219;-71
2023/02/03 05:57:41;;;;;;;;;0.00;0.00;;;;;10.57;100.00;103054.38;5116365;27;46524;-70
2023/02/03 06:00:08;;;;;;;;;0.00;0.00;;;;;10.61;100.00;103069.56;5122034;27;45522;-71
2023/02/03 06:02:34;;;;;;;;;0.00;0.00;;;;;10.66;100.00;103084.78;5118631;27;45297;-71
2023/02/03 06:04:59;;;;;;;;;0.00;0.00;;;;;10.65;100.00;103076.75;5116208;27;45700;-71
2023/02/03 06:07:24;;;;;;;;;0.00;0.00;;;;;10.63;100.00;103084.63;5115021;27;69551;-71
2023/02/03 06:09:50;;;;;;;;;1.00;0.00;;;;;10.64;100.00;103075.88;5116632;27;64047;-70
2023/02/03 06:12:15;;;;;;;;;1.00;0.00;;;;;10.62;100.00;103069.63;5116441;27;62879;-70
2023/02/03 06:14:40;;;;;;;;;0.00;0.00;;;;;10.58;100.00;103069.41;5116092;27;57397;-70
2023/02/03 06:17:06;;;;;;;;;0.33;0.00;;;;;10.56;100.00;103058.75;5115590;27;69735;-70
2023/02/03 06:19:31;;;;;;;;;1.00;0.00;;;;;10.56;100.00;103069.34;5116664;27;45431;-70
2023/02/03 06:21:57;;;;;;;;;0.33;0.33;;;;;10.59;100.00;103073.84;5116223;27;63171;-70
2023/02/03 06:24:22;;;;;;;;;2.00;1.00;;;;;10.59;100.00;103073.84;5094665;27;63529;-70
2023/02/03 06:26:47;;;;;;;;;1.00;0.00;;;;;10.58;100.00;103079.97;5115950;27;69111;-70
2023/02/03 06:29:13;;;;;;;;;0.00;0.00;;;;;10.58;100.00;103095.81;5116125;27;65851;-70
2023/02/03 06:31:38;;;;;;;;;0.00;0.00;;;;;10.56;100.00;103090.47;5116820;27;45357;-70
2023/02/03 06:34:03;;;;;;;;;2.00;0.00;;;;;10.53;100.00;103090.31;5117123;27;45226;-70
2023/02/03 06:36:28;;;;;;;;;1.00;1.00;;;;;10.49;100.00;103084.00;5096860;27;64660;-71
2023/02/03 06:38:54;;;;;;;;;2.00;0.00;;;;;10.45;100.00;103079.41;5115857;27;62396;-70
2023/02/03 06:41:19;;;;;;;;;0.67;0.67;;;;;10.41;100.00;103076.53;5114873;27;47303;-70
2023/02/03 06:43:44;;;;;;;;;1.00;1.00;;;;;10.44;100.00;103074.06;5115944;27;58676;-70
2023/02/03 06:46:10;;;;;;;;;0.00;0.00;;;;;10.43;100.00;103083.69;5112918;27;69048;-69
2023/02/03 06:48:35;;;;;;;;;1.00;1.00;;;;;10.43;100.00;103077.50;5115382;27;45465;-70
2023/02/03 06:51:01;;;;;;;;;1.00;1.00;;;;;10.43;100.00;103083.69;5116366;27;45302;-69
2023/02/03 06:53:26;;;;;;;;;1.00;1.00;;;;;10.42;100.00;103063.38;5113873;27;45583;-70
2023/02/03 06:55:51;;;;;;;;;1.00;1.00;;;;;10.45;100.00;103079.41;5110342;27;45821;-70
2023/02/03 06:58:17;;;;;;;;;0.33;0.33;;;;;10.43;100.00;103075.75;5111079;27;67614;-70
2023/02/03 07:00:42;;;;;;;;;0.00;0.00;;;;;10.40;100.00;103073.00;5110063;27;45575;-71
2023/02/03 07:03:08;;;;;;;;;0.00;0.00;;;;;10.42;100.00;103076.59;5103928;27;45466;-70
2023/02/03 07:05:34;;;;;;;;;0.00;0.00;;;;;10.41;100.00;103073.88;5094586;27;45645;-70
2023/02/03 07:08:00;;;;;;;;;1.00;1.00;;;;;10.42;100.00;103073.06;5113028;27;45552;-70
2023/02/03 07:10:25;;;;;;;;;0.00;0.00;;;;;10.42;100.00;103087.16;5106851;27;61266;-69
2023/02/03 07:12:51;;;;;;;;;0.00;0.00;;;;;10.41;100.00;103089.72;5087067;27;45488;-69
2023/02/03 07:15:16;;;;;;;;;0.67;0.67;;;;;10.41;100.00;103090.63;5110083;27;45840;-70
2023/02/03 07:17:41;;;;;;;;;0.67;0.67;;;;;10.44;100.00;103098.72;5110099;27;45559;-71
2023/02/03 07:20:07;;;;;;;;;0.00;0.00;;;;;10.45;100.00;103094.34;5109060;27;45970;-70
2023/02/03 07:22:33;;;;;;;;;1.00;1.00;;;;;10.46;100.00;103098.78;5114151;27;45522;-72
2023/02/03 07:24:58;;;;;;;;;0.33;0.33;;;;;10.44;100.00;103089.91;5114138;27;51753;-71
2023/02/03 07:27:24;;;;;;;;;0.67;0.33;;;;;10.46;100.00;103096.13;5114675;27;61934;-70
2023/02/03 07:29:49;;;;;;;;;2.33;0.00;;;;;10.46;100.00;103094.41;5114681;27;45446;-68
2023/02/03 07:32:14;;;;;;;;;1.00;1.00;;;;;10.45;100.00;103081.13;5090651;27;55332;-69
2023/02/03 07:34:40;;;;;;;;;1.00;1.00;;;;;10.49;100.00;103088.34;5093905;27;47375;-69
2023/02/03 07:37:05;;;;;;;;;1.67;0.67;;;;;10.46;100.00;103083.84;5116327;27;45413;-68
2023/02/03 07:39:31;;;;;;;;;1.33;0.00;;;;;10.46;100.00;103094.41;5111315;27;48927;-69
2023/02/03 07:41:57;;;;;;;;;1.00;1.00;;;;;10.46;100.00;103096.13;5112241;27;45496;-68
2023/02/03 07:44:22;;;;;;;;;1.00;1.00;;;;;10.48;100.00;103091.81;5115510;27;46717;-68
2023/02/03 07:46:48;;;;;;;;;0.00;0.00;;;;;10.43;100.00;103072.22;5113359;27;65797;-68
2023/02/03 07:49:14;;;;;;;;;1.00;1.00;;;;;10.48;100.00;103081.25;5112182;27;45780;-69
2023/02/03 07:51:40;;;;;;;;;1.00;1.00;;;;;10.48;100.00;103084.81;5103726;27;45561;-69
2023/02/03 07:54:05;;;;;;;;;2.00;0.33;;;;;10.51;100.00;103088.44;5095008;27;54170;-68
2023/02/03 07:56:31;;;;;;;;;2.00;1.00;;;;;10.54;100.00;103092.09;5112939;27;45391;-68
2023/02/03 07:58:57;;;;;;;;;0.00;0.00;;;;;10.54;100.00;103097.41;5117478;27;46048;-68
2023/02/03 08:01:23;;;;;;;;;0.67;0.67;;;;;10.59;100.00;103105.53;5115164;27;45476;-68
2023/02/03 08:03:48;;;;;;;;;1.00;1.00;;;;;10.57;100.00;103112.50;5111612;27;62613;-68
2023/02/03 08:06:14;;;;;;;;;1.33;1.00;;;;;10.64;100.00;103127.81;5114538;27;67873;-68
2023/02/03 08:08:40;;;;;;;;;2.00;1.00;;;;;10.65;100.00;103124.31;5115033;27;45461;-69
2023/02/03 08:11:05;;;;;;;;;1.00;1.00;;;;;10.67;100.00;103130.59;5244718;22;45410;-69
2023/02/03 08:13:31;;;;;;;;;1.67;0.00;;;;;10.69;100.00;103129.81;5117464;27;46439;-69
2023/02/03 08:15:56;;;;;;;;;1.33;0.00;;;;;10.71;100.00;103135.22;5116310;27;45463;-69
2023/02/03 08:18:22;;;;;;;;;1.00;1.00;;;;;10.73;100.00;103133.53;5118849;27;45791;-69
2023/02/03 08:20:47;;;;;;;;;1.00;1.00;;;;;10.80;100.00;103140.00;5113627;27;64175;-69
2023/02/03 08:23:13;;;;;;;;;0.33;0.33;;;;;10.77;100.00;103134.59;5119300;27;46351;-69
2023/02/03 08:25:39;;;;;;;;;1.00;0.00;;;;;10.81;100.00;103148.00;5114654;27;68554;-69
2023/02/03 08:28:04;;;;;;;;;1.00;1.00;;;;;10.81;100.00;103145.34;5117212;27;63269;-69
2023/02/03 08:30:29;;;;;;;;;2.00;0.00;;;;;10.80;100.00;103142.66;5110701;27;45557;-69
2023/02/03 08:32:55;;;;;;;;;2.00;0.33;;;;;10.83;100.00;103158.66;5115745;27;66232;-69
2023/02/03 08:35:20;;;;;;;;;1.00;1.00;;;;;10.82;100.00;103168.31;5119249;27;54488;-68
2023/02/03 08:37:45;;;;;;;;;2.00;1.67;;;;;10.81;100.00;103161.22;5097373;27;45371;-69
2023/02/03 08:40:11;;;;;;;;;1.00;1.00;;;;;10.84;100.00;103164.00;5092660;27;45498;-69
2023/02/03 08:42:36;;;;;;;;;0.00;0.00;;;;;10.86;100.00;103175.53;5078341;27;47245;-69
2023/02/03 08:45:03;;;;;;;;;0.00;0.00;;;;;10.86;100.00;103164.06;5096426;27;45434;-68
2023/02/03 08:47:28;;;;;;;;;1.33;1.00;;;;;10.86;100.00;103164.06;5116796;27;45370;-69
2023/02/03 08:49:53;;;;;;;;;0.00;0.00;;;;;10.83;100.00;103154.28;5113099;27;62952;-69
2023/02/03 08:52:19;;;;;;;;;1.33;0.33;;;;;10.86;100.00;103161.44;5118276;27;70444;-69
2023/02/03 08:54:44;;;;;;;;;2.00;0.00;;;;;10.87;100.00;103164.16;5115772;27;61130;-69
2023/02/03 08:57:10;;;;;;;;;0.33;0.33;;;;;10.92;100.00;103170.56;5118716;27;45338;-69
2023/02/03 08:59:37;;;;;;;;;1.00;1.00;;;;;10.93;100.00;103168.84;5118600;27;45527;-69
2023/02/03 09:02:04;;;;;;;;;2.00;1.00;;;;;10.95;100.00;103173.34;5117928;27;46682;-69
2023/02/03 09:04:31;;;;;;;;;1.00;1.00;;;;;10.96;100.00;103169.84;5117952;27;45492;-69
2023/02/03 09:06:56;;;;;;;;;1.00;0.00;;;;;10.99;100.00;103169.13;5113109;27;45414;-69
2023/02/03 09:09:22;;;;;;;;;1.00;1.00;;;;;11.01;100.00;103173.63;5118041;27;45343;-69
2023/02/03 09:11:48;;;;;;;;;1.00;1.00;;;;;11.00;100.00;103176.22;5095304;27;47625;-68
2023/02/03 09:14:13;;;;;;;;;2.00;2.00;;;;;11.01;100.00;103168.34;5109480;27;45413;-68
2023/02/03 09:16:40;;;;;;;;;2.67;1.00;;;;;11.00;100.00;103169.19;5117880;27;45296;-69
2023/02/03 09:19:05;;;;;;;;;4.67;0.67;;;;;11.04;100.00;103174.63;5097755;27;45475;-69
2023/02/03 09:21:31;;;;;;;;;2.33;1.00;;;;;11.06;100.00;103165.91;5114246;27;46341;-68
2023/02/03 09:24:00;;;;;;;;;1.00;1.00;;;;;11.09;100.00;103166.06;5111763;27;48031;-68
2023/02/03 09:26:26;;;;;;;;;0.00;0.00;;;;;11.13;100.00;103175.03;5105555;27;45410;-68
2023/02/03 09:28:51;;;;;;;;;1.00;1.00;;;;;11.14;100.00;103161.91;5107960;27;64472;-68
2023/02/03 09:31:16;;;;;;;;;1.00;1.00;;;;;11.19;100.00;103170.03;5115187;27;46573;-68
2023/02/03 09:33:42;;;;;;;;;1.00;1.00;;;;;11.22;100.00;103170.16;5112919;27;45353;-69
2023/02/03 09:36:09;;;;;;;;;1.00;0.00;;;;;11.21;100.00;103168.38;5109328;27;55119;-69
2023/02/03 09:38:34;;;;;;;;;1.00;1.00;;;;;11.22;100.00;103167.53;5116755;27;45220;-69
2023/02/03 09:40:59;;;;;;;;;1.00;1.00;;;;;11.24;100.00;103174.72;5112169;27;46338;-69
2023/02/03 09:43:46;;;;;;;;;0.00;0.00;;;;;11.29;100.00;103182.81;5111586;27;45205;-68
2023/02/03 09:46:26;;;;;;;;;1.00;1.00;;;;;11.31;100.00;103185.56;5092438;27;45334;-68
2023/02/03 09:48:56;;;;;;;;;1.00;1.00;;;;;11.32;100.00;103196.22;5091598;27;45313;-69
2023/02/03 09:51:25;;;;;;;;;1.00;1.00;;;;;11.33;100.00;103207.69;5089429;27;46802;-69
2023/02/03 09:53:56;;;;;;;;;3.00;1.00;;;;;11.31;100.00;103198.78;5095204;27;46385;-69
2023/02/03 09:56:33;;;;;;;;;2.00;1.00;;;;;11.33;100.00;103192.72;5093493;27;45603;-69
2023/02/03 09:58:58;;;;;;;;;1.67;1.00;;;;;11.32;100.00;103190.91;5094601;27;45484;-68
2023/02/03 10:01:44;;;;;;;;;3.50;1.25;;;;;11.39;100.00;103198.28;5097688;27;46963;-69
2023/02/03 10:04:31;;;;;;;;;4.67;1.33;;;;;11.49;100.00;103202.25;5117038;27;45416;-69
2023/02/03 10:07:24;;;;;;;;;2.00;2.00;;;;;11.62;100.00;103204.63;5098912;27;45484;-69
2023/02/03 10:09:52;;;;;;;;;2.00;1.00;;;;;11.70;100.00;103202.31;5094741;27;45358;-69
2023/02/03 10:12:35;;;;;;;;;2.00;1.00;;;;;11.74;100.00;103197.22;5097711;27;45854;-69
2023/02/03 10:15:20;;;;;;;;;1.00;1.00;;;;;11.78;100.00;103208.88;5097726;27;45312;-69
2023/02/03 10:17:51;;;;;;;;;2.67;1.00;;;;;11.79;100.00;103202.72;5115711;27;45397;-69
2023/02/03 10:20:34;;;;;;;;;0.67;0.67;;;;;11.83;100.00;103209.09;5112576;27;45663;-69
2023/02/03 10:23:06;;;;;;;;;1.00;1.00;;;;;11.87;100.00;103197.78;5080409;27;47258;-68
2023/02/03 10:25:40;;;;;;;;;1.00;1.00;;;;;11.95;100.00;103202.59;5094783;27;45410;-69
2023/02/03 10:28:30;;;;;;;;;1.00;1.00;;;;;12.02;100.00;103214.34;5117660;27;45272;-70
2023/02/03 10:30:57;;;;;;;;;3.33;1.00;;;;;12.00;100.00;103201.06;5094827;27;45436;-69
2023/02/03 10:33:28;;;;;;;;;0.00;0.00;;;;;12.00;100.00;103203.69;5080430;27;47394;-69
2023/02/03 10:36:02;;;;;;;;;3.67;1.00;;;;;12.00;100.00;103208.09;5109725;27;47351;-69
2023/02/03 10:38:56;;;;;;;;;1.00;1.00;;;;;12.00;100.00;103208.09;5113192;27;45452;-69
2023/02/03 10:41:22;;;;;;;;;1.00;1.00;;;;;11.95;100.00;103207.88;5113878;27;45451;-68
2023/02/03 10:43:52;;;;;;;;;1.00;0.67;;;;;11.94;100.00;103214.03;5094134;27;66504;-68
2023/02/03 10:46:27;;;;;;;;;1.00;1.00;;;;;11.94;100.00;103215.78;5093011;27;45409;-69
2023/02/03 10:48:53;;;;;;;;;1.00;1.00;;;;;11.96;100.00;103222.94;5112155;27;45315;-69
2023/02/03 10:51:29;;;;;;;;;1.00;1.00;;;;;11.94;100.00;103205.19;5115992;27;56040;-69
2023/02/03 10:53:54;;;;;;;;;1.00;1.00;;;;;11.98;100.00;103207.09;5111119;27;46617;-69
2023/02/03 10:56:23;;;;;;;;;1.00;1.00;;;;;12.03;100.00;103211.75;5116253;27;45529;-70
2023/02/03 10:58:54;;;;;;;;;1.67;1.00;;;;;12.05;100.00;103204.81;5099070;27;45275;-70
2023/02/03 11:01:22;;;;;;;;;1.00;1.00;;;;;12.09;100.00;103197.91;5111967;27;45499;-70
2023/02/03 11:04:02;;;;;;;;;1.67;1.00;;;;;12.11;100.00;103196.22;5092672;27;45943;-69
2023/02/03 11:06:29;;;;;;;;;3.33;2.00;;;;;12.12;100.00;103200.66;5087807;27;45344;-70
2023/02/03 11:08:54;;;;;;;;;1.33;1.00;;;;;12.11;100.00;103197.97;5093732;27;45376;-69
2023/02/03 11:11:20;;;;;;;;;1.00;1.00;;;;;12.11;100.00;103192.66;5092593;27;45489;-69
2023/02/03 11:13:47;;;;;;;;;3.00;0.00;;;;;12.11;100.00;103195.31;5114873;27;45827;-70
2023/02/03 11:16:15;;;;;;;;;1.00;1.00;;;;;12.07;100.00;103192.53;5096344;27;45382;-70
2023/02/03 11:18:46;;;;;;;;;1.33;1.00;;;;;12.07;100.00;103197.81;5110549;27;45434;-70
2023/02/03 11:21:30;;;;;;;;;1.00;1.00;;;;;12.06;100.00;103201.31;5095018;27;45475;-71
2023/02/03 11:23:59;;;;;;;;;1.00;1.00;;;;;12.05;100.00;103201.25;5111718;27;46672;-71